Time;durP1;ratioP1;P1;durP2;ratioP2;P2;SDS_P1;SDS_P2;PMS_P1;PMS_P2;Temp;Humidity;BMP_temperature;BMP_pressure;BME280_temperature;BME280_humidity;BME280_pressure;Samples;Min_cycle;Max_cycle;Signal;HPM_P1;HPM_P2
2021/03/25 00:00:39;;;;;;;44.17;20.90;;;6.60;99.90;;;;;;5033496;28;20207;-65
2021/03/25 00:03:08;;;;;;;46.80;22.57;;;6.60;99.90;;;;;;5033617;28;20199;-64
2021/03/25 00:05:35;;;;;;;40.50;21.97;;;6.50;99.90;;;;;;5033576;28;20172;-64
2021/03/25 00:08:03;;;;;;;51.63;23.07;;;6.50;99.90;;;;;;5033653;28;20167;-65
2021/03/25 00:10:31;;;;;;;41.87;21.70;;;6.50;99.90;;;;;;5032528;28;20253;-64
2021/03/25 00:12:58;;;;;;;47.53;22.13;;;6.40;99.90;;;;;;5033306;28;20687;-65
2021/03/25 00:15:25;;;;;;;57.40;24.50;;;6.40;99.90;;;;;;5033773;28;20557;-65
2021/03/25 00:17:50;;;;;;;47.40;21.33;;;6.30;99.90;;;;;;5033448;28;20202;-63
2021/03/25 00:20:16;;;;;;;46.40;22.40;;;6.20;99.90;;;;;;5033315;28;20669;-64
2021/03/25 00:22:43;;;;;;;59.30;22.73;;;6.20;99.90;;;;;;5033076;28;20207;-65
2021/03/25 00:25:14;;;;;;;44.60;20.73;;;6.10;99.90;;;;;;5032806;28;20178;-65
2021/03/25 00:27:40;;;;;;;40.43;19.67;;;6.10;99.90;;;;;;5033279;28;20198;-64
2021/03/25 00:30:08;;;;;;;50.13;21.57;;;6.20;99.90;;;;;;5033228;28;20266;-64
2021/03/25 00:32:33;;;;;;;46.23;22.70;;;6.20;99.90;;;;;;5033057;28;20230;-64
2021/03/25 00:34:59;;;;;;;50.03;23.87;;;6.20;99.90;;;;;;5032985;28;20740;-64
2021/03/25 00:37:25;;;;;;;47.83;22.20;;;6.10;99.90;;;;;;5033317;28;20164;-64
2021/03/25 00:39:51;;;;;;;44.10;21.20;;;6.20;99.90;;;;;;5032857;28;20195;-64
2021/03/25 00:42:17;;;;;;;59.37;21.67;;;6.10;99.90;;;;;;5033130;28;20257;-64
2021/03/25 00:44:43;;;;;;;54.57;21.13;;;6.10;99.90;;;;;;5032821;28;20214;-64
2021/03/25 00:47:09;;;;;;;45.23;21.60;;;6.20;99.90;;;;;;5033180;28;20199;-65
2021/03/25 00:49:35;;;;;;;43.30;21.13;;;6.10;99.90;;;;;;5032791;28;20633;-64
2021/03/25 00:52:02;;;;;;;49.63;23.60;;;6.00;99.90;;;;;;5032730;28;20167;-64
2021/03/25 00:54:28;;;;;;;58.07;24.63;;;5.90;99.90;;;;;;5032832;28;20182;-64
2021/03/25 00:56:53;;;;;;;63.47;27.37;;;5.90;99.90;;;;;;5032609;28;20172;-64
2021/03/25 00:59:19;;;;;;;63.47;29.30;;;5.80;99.90;;;;;;5032617;28;20210;-65
2021/03/25 01:01:45;;;;;;;57.00;28.70;;;5.80;99.90;;;;;;5032448;28;20194;-64
2021/03/25 01:04:10;;;;;;;60.97;28.40;;;5.70;99.90;;;;;;5031739;28;20176;-65
2021/03/25 01:06:36;;;;;;;59.60;27.40;;;5.70;99.90;;;;;;5032686;28;20183;-65
2021/03/25 01:09:12;;;;;;;66.77;29.20;;;5.70;99.90;;;;;;5032173;28;20229;-64
2021/03/25 01:11:38;;;;;;;57.70;26.43;;;5.70;99.90;;;;;;5032302;28;20183;-65
2021/03/25 01:14:08;;;;;;;50.40;22.77;;;5.70;99.90;;;;;;5032405;28;20673;-65
2021/03/25 01:16:40;;;;;;;55.07;22.73;;;5.70;99.90;;;;;;5032586;28;20175;-65
2021/03/25 01:19:20;;;;;;;51.30;22.67;;;5.60;99.90;;;;;;5032016;28;20202;-65
2021/03/25 01:21:46;;;;;;;56.90;23.00;;;5.60;99.90;;;;;;5031879;28;20205;-64
2021/03/25 01:24:12;;;;;;;55.63;23.00;;;5.60;99.90;;;;;;5032106;28;20202;-63
2021/03/25 01:26:38;;;;;;;50.07;23.47;;;5.60;99.90;;;;;;5032343;28;20179;-64
2021/03/25 01:29:05;;;;;;;53.77;25.40;;;5.60;99.90;;;;;;5032044;28;20199;-64
2021/03/25 01:31:32;;;;;;;52.63;25.07;;;5.60;99.90;;;;;;5031791;28;20171;-64
2021/03/25 01:33:58;;;;;;;55.90;26.03;;;5.70;99.90;;;;;;5032232;28;20172;-64
2021/03/25 01:36:24;;;;;;;52.47;25.40;;;5.70;99.90;;;;;;5031874;28;20202;-64
2021/03/25 01:38:49;;;;;;;49.43;22.90;;;5.70;99.90;;;;;;5031805;28;20191;-63
2021/03/25 01:41:15;;;;;;;60.47;24.70;;;5.70;99.90;;;;;;5031497;28;20223;-64
2021/03/25 01:43:43;;;;;;;52.43;22.53;;;5.60;99.90;;;;;;5032027;28;20245;-64
2021/03/25 01:46:18;;;;;;;56.67;24.40;;;5.50;99.90;;;;;;5031753;28;20163;-64
2021/03/25 01:48:47;;;;;;;57.27;24.27;;;5.50;99.90;;;;;;5031669;28;20207;-64
2021/03/25 01:51:32;;;;;;;48.63;23.77;;;5.40;99.90;;;;;;5031487;28;20290;-64
2021/03/25 01:54:13;;;;;;;53.83;22.80;;;5.50;99.90;;;;;;5031815;28;20711;-64
2021/03/25 01:57:02;;;;;;;53.60;23.00;;;5.50;99.90;;;;;;5031354;28;20278;-64
2021/03/25 01:59:39;;;;;;;55.43;22.70;;;5.50;99.90;;;;;;5031316;28;20219;-64
2021/03/25 02:02:41;;;;;;;48.67;23.07;;;5.30;99.90;;;;;;5011859;28;20222;-64
2021/03/25 02:05:21;;;;;;;59.73;23.10;;;5.30;99.90;;;;;;5024971;28;20210;-64
2021/03/25 02:08:05;;;;;;;59.40;24.20;;;5.30;99.90;;;;;;5031695;28;20528;-64
2021/03/25 02:11:02;;;;;;;50.53;23.23;;;5.30;99.90;;;;;;5031220;28;20191;-65
2021/03/25 02:13:39;;;;;;;51.47;22.53;;;5.30;99.90;;;;;;5031821;28;20180;-64
2021/03/25 02:16:12;;;;;;;58.23;25.50;;;5.30;99.90;;;;;;5031496;28;20278;-64
2021/03/25 02:18:46;;;;;;;58.63;24.13;;;5.20;99.90;;;;;;5031547;28;20664;-64
2021/03/25 02:21:38;;;;;;;58.60;26.00;;;5.10;99.90;;;;;;5031162;28;20199;-65
2021/03/25 02:24:07;;;;;;;56.97;24.13;;;5.10;99.90;;;;;;5015241;28;20215;-64
2021/03/25 02:26:45;;;;;;;56.47;24.83;;;5.10;99.90;;;;;;5031612;28;20167;-64
2021/03/25 02:29:19;;;;;;;47.97;23.87;;;5.10;99.90;;;;;;5016445;28;20234;-64
2021/03/25 02:31:49;;;;;;;50.23;23.77;;;5.10;99.90;;;;;;5031069;28;20179;-64
2021/03/25 02:34:20;;;;;;;49.73;22.50;;;5.00;99.90;;;;;;5013977;28;20578;-65
2021/03/25 02:36:58;;;;;;;55.63;23.63;;;5.10;99.90;;;;;;5023044;28;20175;-65
2021/03/25 02:39:59;;;;;;;46.80;22.47;;;5.10;99.90;;;;;;5035439;28;20227;-64
2021/03/25 02:42:34;;;;;;;47.83;21.53;;;5.10;99.90;;;;;;5034671;28;20272;-65
2021/03/25 02:45:19;;;;;;;57.10;22.97;;;5.00;99.90;;;;;;5035328;28;20167;-65
2021/03/25 02:47:48;;;;;;;54.77;22.37;;;4.90;99.90;;;;;;5035113;28;20171;-64
2021/03/25 02:50:22;;;;;;;49.10;21.37;;;5.00;99.90;;;;;;5034947;28;20183;-64
2021/03/25 02:52:56;;;;;;;53.27;22.70;;;5.00;99.90;;;;;;5034805;28;20299;-65
2021/03/25 02:55:22;;;;;;;51.57;22.47;;;5.00;99.90;;;;;;5035023;28;20175;-65
2021/03/25 02:58:08;;;;;;;51.30;22.00;;;5.00;99.90;;;;;;5039460;28;20174;-68
2021/03/25 03:00:48;;;;;;;48.10;22.40;;;4.90;99.90;;;;;;5039737;28;20294;-68
2021/03/25 03:03:20;;;;;;;46.73;21.97;;;4.90;99.90;;;;;;5038840;28;20179;-67
2021/03/25 03:05:49;;;;;;;50.13;22.57;;;4.90;99.90;;;;;;5039204;28;20171;-67
2021/03/25 03:08:21;;;;;;;50.23;21.90;;;4.80;99.90;;;;;;5039396;28;20176;-65
2021/03/25 03:10:59;;;;;;;48.03;21.30;;;4.90;99.90;;;;;;5037878;28;20176;-67
2021/03/25 03:13:30;;;;;;;53.57;22.37;;;4.80;99.90;;;;;;5039283;28;20188;-67
2021/03/25 03:16:03;;;;;;;51.00;22.17;;;4.80;99.90;;;;;;5038397;28;20207;-66
2021/03/25 03:18:43;;;;;;;56.87;23.63;;;4.80;99.90;;;;;;5038657;28;20550;-68
2021/03/25 03:21:19;;;;;;;48.00;22.27;;;4.70;99.90;;;;;;5038934;28;20191;-66
2021/03/25 03:23:45;;;;;;;54.63;22.17;;;4.70;99.90;;;;;;5038586;28;20175;-66
2021/03/25 03:26:26;;;;;;;50.73;22.23;;;4.70;99.90;;;;;;5039000;28;20262;-69
2021/03/25 03:29:03;;;;;;;48.80;21.17;;;4.60;99.90;;;;;;5037127;28;20195;-66
2021/03/25 03:31:37;;;;;;;46.90;21.40;;;4.60;99.90;;;;;;5037446;28;20834;-68
2021/03/25 03:34:27;;;;;;;53.83;22.93;;;4.70;99.90;;;;;;5038521;28;20176;-68
2021/03/25 03:36:56;;;;;;;52.77;21.67;;;4.60;99.90;;;;;;5038339;28;20178;-67
2021/03/25 03:39:25;;;;;;;49.23;22.80;;;4.70;99.90;;;;;;5038266;28;20774;-66
2021/03/25 03:41:58;;;;;;;54.40;22.97;;;4.60;99.90;;;;;;5038415;28;20187;-67
2021/03/25 03:44:33;;;;;;;52.80;23.97;;;4.60;99.90;;;;;;5038011;28;20194;-67
2021/03/25 03:46:59;;;;;;;54.00;21.10;;;4.60;99.90;;;;;;5038623;28;20171;-68
2021/03/25 03:49:50;;;;;;;52.23;23.43;;;4.50;99.90;;;;;;5038534;28;20574;-67
2021/03/25 03:52:26;;;;;;;42.23;20.90;;;4.50;99.90;;;;;;5038678;28;20179;-68
2021/03/25 03:54:54;;;;;;;49.67;23.10;;;4.50;99.90;;;;;;5038098;28;20281;-68
2021/03/25 03:57:33;;;;;;;55.00;23.20;;;4.50;99.90;;;;;;5037823;28;20179;-66
2021/03/25 04:00:32;;;;;;;43.63;21.20;;;4.50;99.90;;;;;;5038049;28;20214;-69
2021/03/25 04:03:08;;;;;;;51.10;20.60;;;4.50;99.90;;;;;;5036589;28;20677;-66
2021/03/25 04:05:39;;;;;;;44.13;19.67;;;4.40;99.90;;;;;;5037790;28;20250;-67
2021/03/25 04:08:23;;;;;;;52.40;21.97;;;4.40;99.90;;;;;;5038575;28;20535;-70
2021/03/25 04:11:02;;;;;;;45.80;20.10;;;4.40;99.90;;;;;;5037760;28;20167;-70
2021/03/25 04:13:32;;;;;;;56.00;22.47;;;4.50;99.90;;;;;;5038021;28;20180;-67
2021/03/25 04:15:59;;;;;;;47.77;22.03;;;4.50;99.90;;;;;;5037856;28;20258;-67
2021/03/25 04:18:35;;;;;;;45.37;20.60;;;4.70;99.90;;;;;;5038099;28;20535;-66
2021/03/25 04:21:20;;;;;;;46.13;20.37;;;4.80;99.90;;;;;;5037743;28;20175;-69
2021/03/25 04:23:47;;;;;;;43.10;18.10;;;4.80;99.90;;;;;;5037770;28;20156;-67
2021/03/25 04:26:41;;;;;;;48.27;21.10;;;4.90;99.90;;;;;;5037171;28;20180;-67
2021/03/25 04:29:23;;;;;;;37.00;18.47;;;5.00;99.90;;;;;;5037170;28;20661;-67
2021/03/25 04:31:48;;;;;;;44.90;19.57;;;5.20;99.90;;;;;;5036811;28;20175;-68
2021/03/25 04:34:14;;;;;;;41.97;18.20;;;5.30;99.90;;;;;;5036710;28;20267;-65
2021/03/25 04:36:44;;;;;;;35.93;18.93;;;5.40;99.90;;;;;;5036931;28;20187;-67
2021/03/25 04:39:12;;;;;;;35.63;17.30;;;5.50;99.90;;;;;;5036556;28;20575;-70
2021/03/25 04:41:41;;;;;;;42.40;17.93;;;5.50;99.90;;;;;;5036758;28;20717;-70
2021/03/25 04:44:20;;;;;;;32.93;17.53;;;5.60;99.90;;;;;;5037146;28;20171;-67
2021/03/25 04:47:28;;;;;;;36.20;18.83;;;5.70;99.90;;;;;;5035395;28;20194;-69
2021/03/25 04:50:15;;;;;;;32.40;16.87;;;5.80;99.90;;;;;;5036201;28;20203;-66
2021/03/25 04:52:40;;;;;;;33.90;16.80;;;5.80;99.90;;;;;;5036846;28;20254;-68
2021/03/25 04:55:21;;;;;;;34.27;16.63;;;5.90;99.90;;;;;;5035739;28;20618;-67
2021/03/25 04:58:00;;;;;;;36.20;17.93;;;5.90;99.90;;;;;;5034565;28;20184;-65
2021/03/25 05:00:30;;;;;;;27.33;16.20;;;6.00;99.90;;;;;;5032218;28;20215;-65
2021/03/25 05:02:56;;;;;;;34.67;16.70;;;6.10;99.90;;;;;;5032645;28;20211;-65
2021/03/25 05:05:26;;;;;;;30.93;15.43;;;6.00;99.90;;;;;;5032555;28;20266;-65
2021/03/25 05:08:07;;;;;;;34.90;17.37;;;6.10;99.90;;;;;;5032757;28;20172;-65
2021/03/25 05:10:43;;;;;;;33.10;15.37;;;6.10;99.90;;;;;;5031798;28;20636;-65
2021/03/25 05:13:32;;;;;;;35.40;18.00;;;6.20;99.90;;;;;;5032355;28;20187;-65
2021/03/25 05:16:23;;;;;;;42.20;18.50;;;6.20;99.90;;;;;;5032563;28;20183;-65
2021/03/25 05:19:17;;;;;;;38.40;19.27;;;6.20;99.90;;;;;;5012761;28;20270;-65
2021/03/25 05:22:22;;;;;;;42.37;21.73;;;6.00;99.90;;;;;;5016703;28;20216;-65
2021/03/25 05:25:08;;;;;;;47.97;24.40;;;6.00;99.90;;;;;;5030949;28;20191;-65
2021/03/25 05:27:37;;;;;;;45.40;24.50;;;6.00;99.90;;;;;;5032068;28;20247;-65
2021/03/25 05:30:08;;;;;;;54.97;26.80;;;6.00;99.90;;;;;;5032003;28;20191;-65
2021/03/25 05:32:38;;;;;;;58.20;28.00;;;5.90;99.90;;;;;;5032083;28;20277;-65
2021/03/25 05:35:08;;;;;;;62.03;31.30;;;5.90;99.90;;;;;;5032534;28;20183;-65
2021/03/25 05:37:33;;;;;;;71.07;32.13;;;5.90;99.90;;;;;;5032375;28;20675;-65
2021/03/25 05:40:03;;;;;;;59.27;29.90;;;5.90;99.90;;;;;;5032151;28;20199;-65
2021/03/25 05:42:47;;;;;;;64.10;34.40;;;5.90;99.90;;;;;;5032055;28;20214;-65
2021/03/25 05:45:25;;;;;;;65.73;34.03;;;5.90;99.90;;;;;;5031880;28;20337;-65
2021/03/25 05:48:04;;;;;;;57.67;31.57;;;5.90;99.90;;;;;;5031990;28;20250;-65
2021/03/25 05:50:53;;;;;;;63.23;33.00;;;6.00;99.90;;;;;;5031463;28;20604;-65
2021/03/25 05:53:43;;;;;;;62.57;33.87;;;6.00;99.90;;;;;;5032088;28;20188;-65
2021/03/25 05:56:29;;;;;;;66.13;34.83;;;6.00;99.90;;;;;;5031732;28;20862;-65
2021/03/25 05:58:59;;;;;;;64.10;31.57;;;6.00;99.90;;;;;;5031547;28;20596;-65
2021/03/25 06:01:46;;;;;;;68.37;34.33;;;5.90;99.90;;;;;;5031466;28;20349;-65
2021/03/25 06:04:17;;;;;;;74.03;34.27;;;6.00;99.90;;;;;;5031083;28;20167;-65
2021/03/25 06:07:10;;;;;;;62.50;30.37;;;6.00;99.90;;;;;;5031724;28;20192;-65
2021/03/25 06:09:59;;;;;;;70.53;35.37;;;6.00;99.90;;;;;;5030720;28;20208;-65
2021/03/25 06:12:43;;;;;;;72.63;32.63;;;6.00;99.90;;;;;;5030193;28;20199;-65
2021/03/25 06:15:33;;;;;;;61.43;34.50;;;6.00;99.90;;;;;;5031701;28;20171;-65
2021/03/25 06:18:07;;;;;;;72.90;37.77;;;6.00;99.90;;;;;;5031494;28;20265;-65
2021/03/25 06:21:10;;;;;;;64.93;37.03;;;6.00;99.90;;;;;;5031366;28;20309;-65
2021/03/25 06:24:11;;;;;;;83.30;38.13;;;6.10;99.90;;;;;;5031284;28;20183;-65
2021/03/25 06:27:09;;;;;;;79.53;39.60;;;6.20;99.90;;;;;;5017133;28;20187;-65
2021/03/25 06:29:42;;;;;;;77.50;39.63;;;6.20;99.90;;;;;;5031509;28;20187;-65
2021/03/25 06:32:29;;;;;;;74.40;39.53;;;6.40;99.90;;;;;;5031119;28;20543;-65
2021/03/25 06:35:12;;;;;;;84.57;41.83;;;6.40;99.90;;;;;;5031131;28;20182;-65
2021/03/25 06:37:45;;;;;;;75.10;37.77;;;6.40;99.90;;;;;;5031331;28;20179;-65
2021/03/25 06:40:21;;;;;;;73.00;37.70;;;6.50;99.90;;;;;;5031462;28;20238;-65
2021/03/25 06:42:55;;;;;;;83.47;41.77;;;6.50;99.90;;;;;;5031277;28;20229;-65
2021/03/25 06:45:41;;;;;;;73.93;38.87;;;6.50;99.90;;;;;;5012793;28;20197;-65
2021/03/25 06:48:23;;;;;;;82.53;40.37;;;6.60;99.90;;;;;;5030791;28;20181;-65
2021/03/25 06:50:53;;;;;;;86.17;41.90;;;6.70;99.90;;;;;;5030740;28;20163;-65
2021/03/25 06:53:34;;;;;;;82.57;41.27;;;6.80;99.90;;;;;;5020317;28;20175;-65
2021/03/25 06:56:09;;;;;;;76.00;40.57;;;6.90;99.90;;;;;;5030942;28;20586;-65
2021/03/25 06:58:42;;;;;;;81.60;41.37;;;7.10;99.90;;;;;;5029623;28;20218;-65
2021/03/25 07:01:25;;;;;;;93.30;45.30;;;7.20;99.90;;;;;;5030492;28;20180;-65
2021/03/25 07:03:55;;;;;;;76.77;41.13;;;7.40;99.90;;;;;;5031152;28;20168;-65
2021/03/25 07:06:24;;;;;;;77.10;41.17;;;7.60;99.90;;;;;;5030998;28;20180;-65
2021/03/25 07:08:53;;;;;;;74.40;39.27;;;7.60;99.90;;;;;;5028516;28;20184;-66
2021/03/25 07:11:19;;;;;;;66.87;38.03;;;7.80;99.90;;;;;;5018572;28;20176;-65
2021/03/25 07:13:56;;;;;;;65.17;37.27;;;8.00;99.90;;;;;;5020763;28;20529;-65
2021/03/25 07:16:22;;;;;;;68.67;38.47;;;8.30;99.90;;;;;;5028209;28;20187;-65
2021/03/25 07:19:07;;;;;;;69.07;38.70;;;8.50;99.90;;;;;;5030974;28;20191;-65
2021/03/25 07:21:40;;;;;;;68.50;37.40;;;8.60;99.90;;;;;;5034473;28;20198;-65
2021/03/25 07:24:27;;;;;;;66.83;38.30;;;8.80;99.90;;;;;;5034205;28;20372;-66
2021/03/25 07:27:17;;;;;;;68.70;36.33;;;9.10;99.90;;;;;;5033928;28;20545;-65
2021/03/25 07:29:55;;;;;;;60.70;34.93;;;9.40;99.90;;;;;;5033756;28;20692;-65
2021/03/25 07:32:34;;;;;;;57.93;34.60;;;10.00;99.90;;;;;;5034483;28;20175;-65
2021/03/25 07:35:25;;;;;;;61.17;33.77;;;10.60;99.90;;;;;;5033740;28;20480;-65
2021/03/25 07:37:52;;;;;;;77.03;36.17;;;10.90;99.90;;;;;;5032740;28;20184;-65
2021/03/25 07:40:37;;;;;;;53.97;32.07;;;11.10;99.90;;;;;;5033948;28;20289;-65
2021/03/25 07:43:22;;;;;;;56.13;31.83;;;11.40;99.90;;;;;;5033879;28;20203;-65
2021/03/25 07:45:48;;;;;;;50.57;31.93;;;11.50;99.90;;;;;;5034217;28;20710;-65
2021/03/25 07:48:22;;;;;;;52.00;30.97;;;11.70;99.90;;;;;;5034133;28;20179;-65
2021/03/25 07:50:49;;;;;;;51.40;32.17;;;11.90;99.90;;;;;;5033790;28;20225;-65
2021/03/25 07:53:33;;;;;;;58.57;32.47;;;12.00;99.90;;;;;;5033594;28;20211;-65
2021/03/25 07:56:31;;;;;;;53.47;32.93;;;12.00;99.90;;;;;;5033978;28;20171;-65
2021/03/25 07:58:57;;;;;;;63.17;33.80;;;11.70;99.90;;;;;;5014737;28;20239;-65
2021/03/25 08:01:23;;;;;;;56.73;31.87;;;11.50;99.90;;;;;;5033629;28;20199;-65
2021/03/25 08:03:54;;;;;;;53.83;33.77;;;11.40;99.90;;;;;;5033823;28;20257;-65
2021/03/25 08:06:23;;;;;;;59.70;34.33;;;11.40;99.90;;;;;;5033115;28;20182;-65
2021/03/25 08:09:05;;;;;;;60.83;33.13;;;11.30;99.90;;;;;;5033533;28;20669;-65
2021/03/25 08:11:32;;;;;;;60.37;34.37;;;11.30;99.90;;;;;;5033588;28;20185;-65
2021/03/25 08:14:00;;;;;;;55.37;33.30;;;11.40;99.90;;;;;;5033717;28;20179;-65
2021/03/25 08:16:29;;;;;;;59.57;32.63;;;11.60;99.90;;;;;;5035124;28;20247;-65
2021/03/25 08:19:04;;;;;;;51.10;31.30;;;11.70;99.90;;;;;;5033603;28;20246;-65
2021/03/25 08:21:41;;;;;;;49.87;32.13;;;12.00;99.90;;;;;;5033319;28;20664;-65
2021/03/25 08:24:28;;;;;;;54.83;30.80;;;12.20;99.90;;;;;;5033651;28;20589;-65
2021/03/25 08:27:20;;;;;;;53.70;30.70;;;12.60;99.90;;;;;;5033436;28;20638;-65
2021/03/25 08:29:59;;;;;;;49.77;31.73;;;12.80;99.90;;;;;;5028148;28;20253;-65
2021/03/25 08:32:36;;;;;;;49.60;31.00;;;12.90;99.90;;;;;;5032650;28;20218;-65
2021/03/25 08:35:38;;;;;;;44.97;28.90;;;12.80;99.90;;;;;;5033188;28;20179;-65
2021/03/25 08:38:28;;;;;;;46.67;29.27;;;12.70;99.90;;;;;;5033400;28;20659;-65
2021/03/25 08:41:04;;;;;;;48.57;28.90;;;12.70;99.90;;;;;;5032969;28;20175;-65
2021/03/25 08:44:00;;;;;;;46.63;27.63;;;12.90;99.90;;;;;;5033805;28;20185;-65
2021/03/25 08:46:39;;;;;;;48.27;27.57;;;13.30;99.90;;;;;;5030996;28;20188;-65
2021/03/25 08:49:17;;;;;;;41.27;26.53;;;14.00;99.90;;;;;;5032391;28;20661;-65
2021/03/25 08:51:45;;;;;;;42.40;27.13;;;14.60;99.90;;;;;;5032416;28;20233;-66
2021/03/25 08:54:19;;;;;;;38.17;25.20;;;15.00;99.90;;;;;;5031959;28;20206;-65
2021/03/25 08:57:20;;;;;;;38.17;21.57;;;15.50;99.90;;;;;;5029375;28;20674;-65
2021/03/25 09:00:04;;;;;;;41.90;27.37;;;15.70;99.90;;;;;;5046051;22;20238;-67
2021/03/25 09:02:48;;;;;;;41.23;25.73;;;15.60;99.90;;;;;;5012525;28;20222;-66
2021/03/25 09:05:35;;;;;;;39.03;25.57;;;15.70;99.90;;;;;;5013078;28;20547;-65
2021/03/25 09:08:05;;;;;;;43.83;29.00;;;15.80;99.90;;;;;;5011685;28;20180;-64
2021/03/25 09:10:34;;;;;;;42.03;27.30;;;15.00;99.90;;;;;;5012606;28;20192;-64
2021/03/25 09:13:00;;;;;;;46.53;29.33;;;14.30;99.90;;;;;;5012890;28;20168;-65
2021/03/25 09:15:26;;;;;;;49.00;28.83;;;13.90;99.90;;;;;;5012838;28;20322;-64
2021/03/25 09:17:54;;;;;;;54.07;30.50;;;13.80;99.90;;;;;;5012517;28;20250;-65
2021/03/25 09:20:35;;;;;;;43.63;28.43;;;13.80;99.90;;;;;;5012678;28;20207;-65
2021/03/25 09:23:30;;;;;;;48.97;29.73;;;13.70;99.90;;;;;;5012474;28;20203;-65
2021/03/25 09:26:22;;;;;;;47.13;29.03;;;13.90;99.90;;;;;;5012434;28;20176;-65
2021/03/25 09:29:00;;;;;;;56.40;30.63;;;13.80;99.90;;;;;;5012234;28;20661;-65
2021/03/25 09:32:05;;;;;;;53.33;31.53;;;13.50;99.90;;;;;;5012216;28;20164;-65
2021/03/25 09:34:48;;;;;;;46.47;30.07;;;13.70;99.90;;;;;;5011688;28;20731;-64
2021/03/25 09:37:19;;;;;;;48.77;29.83;;;14.30;99.90;;;;;;5012322;28;20589;-65
2021/03/25 09:40:02;;;;;;;45.03;28.37;;;14.80;99.90;;;;;;5005634;28;20622;-65
2021/03/25 09:42:28;;;;;;;49.73;28.47;;;15.20;99.90;;;;;;4992568;28;20212;-65
2021/03/25 09:44:54;;;;;;;43.40;28.03;;;15.70;99.90;;;;;;4992409;28;20677;-65
2021/03/25 09:47:36;;;;;;;39.43;23.03;;;15.90;99.90;;;;;;5009544;28;20184;-65
2021/03/25 09:50:02;;;;;;;37.90;24.07;;;16.20;99.90;;;;;;5011914;28;20192;-64
2021/03/25 09:52:37;;;;;;;44.87;28.77;;;16.00;99.90;;;;;;5011497;28;20646;-64
2021/03/25 09:55:03;;;;;;;46.17;26.80;;;16.10;99.90;;;;;;5011821;28;20187;-66
2021/03/25 09:57:29;;;;;;;53.67;28.30;;;16.00;99.90;;;;;;5012247;28;20176;-65
2021/03/25 10:00:00;;;;;;;42.07;26.37;;;15.80;99.90;;;;;;5011234;28;20267;-65
2021/03/25 10:02:40;;;;;;;46.80;25.90;;;15.70;99.90;;;;;;5012098;28;20207;-64
2021/03/25 10:05:33;;;;;;;40.13;26.37;;;15.40;99.90;;;;;;5011678;28;20180;-65
2021/03/25 10:08:08;;;;;;;43.00;26.63;;;15.10;99.90;;;;;;5012049;28;20178;-64
2021/03/25 10:10:46;;;;;;;44.93;27.70;;;15.00;99.90;;;;;;5011570;28;20195;-65
2021/03/25 10:13:16;;;;;;;48.63;29.57;;;14.60;99.90;;;;;;5011812;28;20175;-65
2021/03/25 10:15:52;;;;;;;47.20;26.13;;;14.30;99.90;;;;;;5012018;28;20180;-64
2021/03/25 10:18:17;;;;;;;46.27;26.70;;;14.30;99.90;;;;;;5011154;28;20230;-65
2021/03/25 10:20:53;;;;;;;43.00;25.67;;;14.90;99.90;;;;;;5010767;28;20668;-64
2021/03/25 10:23:27;;;;;;;40.70;22.93;;;15.70;99.90;;;;;;5011665;28;20200;-65
2021/03/25 10:26:01;;;;;;;34.87;21.50;;;16.30;99.90;;;;;;5011898;28;20172;-65
2021/03/25 10:28:32;;;;;;;34.47;21.77;;;16.40;99.90;;;;;;5011704;28;20183;-65
2021/03/25 10:31:06;;;;;;;31.50;20.77;;;16.10;99.90;;;;;;5010734;28;20164;-65
2021/03/25 10:33:35;;;;;;;40.43;24.83;;;16.20;99.90;;;;;;5011825;28;20633;-64
2021/03/25 10:36:04;;;;;;;40.47;24.27;;;16.00;99.90;;;;;;5011883;28;20242;-64
2021/03/25 10:38:37;;;;;;;34.87;22.90;;;16.30;99.90;;;;;;5010904;28;20176;-65
2021/03/25 10:41:04;;;;;;;45.70;26.97;;;16.30;99.90;;;;;;5009964;28;20238;-65
2021/03/25 10:43:35;;;;;;;38.23;24.33;;;16.20;99.90;;;;;;5010101;28;20180;-65
2021/03/25 10:46:05;;;;;;;38.80;24.97;;;16.50;99.90;;;;;;5011565;28;20227;-64
2021/03/25 10:48:42;;;;;;;36.40;23.00;;;16.70;99.90;;;;;;5011572;28;20176;-65
2021/03/25 10:51:14;;;;;;;36.43;22.87;;;17.00;99.90;;;;;;5011261;28;20172;-65
2021/03/25 10:53:50;;;;;;;32.53;21.70;;;17.40;99.90;;;;;;5011492;28;20172;-65
2021/03/25 10:56:37;;;;;;;36.67;21.90;;;17.30;99.90;;;;;;5015297;28;20171;-64
2021/03/25 10:59:14;;;;;;;36.67;24.03;;;17.10;99.90;;;;;;5013908;28;20214;-64
2021/03/25 11:01:57;;;;;;;39.23;23.57;;;17.30;99.90;;;;;;5013800;28;20184;-64
2021/03/25 11:04:24;;;;;;;35.73;21.07;;;17.30;99.90;;;;;;5015147;28;20180;-65
2021/03/25 11:06:50;;;;;;;27.83;19.40;;;17.00;99.90;;;;;;5015238;28;20168;-65
2021/03/25 11:09:27;;;;;;;32.97;18.67;;;16.70;99.90;;;;;;5014719;28;20215;-65
2021/03/25 11:12:10;;;;;;;27.67;16.67;;;16.60;99.90;;;;;;5014845;28;20610;-64
2021/03/25 11:14:46;;;;;;;30.97;19.90;;;16.80;99.90;;;;;;5014068;28;20287;-65
2021/03/25 11:17:15;;;;;;;29.37;19.63;;;17.10;99.90;;;;;;5015101;28;20182;-64
2021/03/25 11:19:42;;;;;;;27.47;18.50;;;17.80;99.90;;;;;;5013604;28;20250;-64
2021/03/25 11:22:11;;;;;;;27.57;17.53;;;18.00;99.90;;;;;;5014899;28;20204;-64
2021/03/25 11:24:38;;;;;;;23.67;16.50;;;18.10;99.90;;;;;;5013608;28;20176;-64
2021/03/25 11:27:10;;;;;;;26.40;17.93;;;17.60;99.90;;;;;;5014664;28;20221;-64
2021/03/25 11:29:39;;;;;;;34.60;20.00;;;17.50;99.90;;;;;;5013363;28;20287;-64
2021/03/25 11:32:13;;;;;;;31.27;18.10;;;17.70;99.90;;;;;;5014423;28;20515;-64
2021/03/25 11:34:41;;;;;;;34.97;19.73;;;17.90;99.90;;;;;;5014354;28;20199;-64
2021/03/25 11:37:25;;;;;;;27.90;17.43;;;18.00;99.90;;;;;;5014608;28;20255;-64
2021/03/25 11:40:16;;;;;;;26.07;16.70;;;17.80;99.90;;;;;;5014076;28;20211;-63
2021/03/25 11:42:43;;;;;;;29.67;16.90;;;17.60;99.90;;;;;;5014504;28;20219;-64
2021/03/25 11:45:33;;;;;;;27.37;16.50;;;17.80;99.90;;;;;;5014122;28;20560;-65
2021/03/25 11:47:59;;;;;;;28.03;17.27;;;17.30;99.90;;;;;;5014278;28;20171;-65
2021/03/25 11:50:29;;;;;;;27.57;17.00;;;17.50;99.90;;;;;;5013934;28;20204;-63
2021/03/25 11:52:58;;;;;;;32.30;18.10;;;17.80;99.90;;;;;;5013978;28;20192;-64
2021/03/25 11:55:33;;;;;;;22.93;15.17;;;18.10;99.90;;;;;;5014179;28;20174;-64
2021/03/25 11:58:18;;;;;;;28.87;16.40;;;18.20;99.90;;;;;;5013925;28;20180;-64
2021/03/25 12:01:05;;;;;;;24.37;13.67;;;18.00;99.90;;;;;;5013656;28;20681;-65
2021/03/25 12:03:49;;;;;;;20.47;14.20;;;18.20;99.90;;;;;;5013753;28;20568;-65
2021/03/25 12:06:25;;;;;;;20.47;12.57;;;18.40;99.90;;;;;;5012759;28;20184;-63
2021/03/25 12:09:24;;;;;;;19.67;12.90;;;18.60;99.90;;;;;;5013697;28;20533;-64
2021/03/25 12:11:50;;;;;;;15.73;10.93;;;18.70;99.90;;;;;;5013686;28;20195;-65
2021/03/25 12:14:19;;;;;;;18.83;12.13;;;18.60;99.90;;;;;;5013509;28;20584;-63
2021/03/25 12:16:46;;;;;;;17.00;11.00;;;18.30;99.90;;;;;;5014155;28;20176;-63
2021/03/25 12:19:12;;;;;;;21.17;12.23;;;18.20;99.90;;;;;;5013376;28;20211;-64
2021/03/25 12:21:41;;;;;;;17.00;11.47;;;17.90;99.90;;;;;;5013497;28;20801;-62
2021/03/25 12:24:07;;;;;;;19.23;12.30;;;17.80;99.90;;;;;;5013817;28;20199;-63
2021/03/25 12:26:33;;;;;;;17.00;11.87;;;17.70;99.90;;;;;;5013521;28;20661;-64
2021/03/25 12:29:06;;;;;;;19.33;12.00;;;17.70;99.90;;;;;;5012169;28;20293;-65
2021/03/25 12:31:35;;;;;;;17.37;12.63;;;17.80;99.90;;;;;;5013008;28;20187;-66
2021/03/25 12:34:01;;;;;;;22.87;13.93;;;17.90;99.90;;;;;;5013508;28;20191;-66
2021/03/25 12:36:27;;;;;;;22.10;11.93;;;18.00;99.90;;;;;;5013424;28;20180;-65
2021/03/25 12:38:53;;;;;;;20.43;13.43;;;18.10;99.90;;;;;;5013399;28;20610;-64
2021/03/25 12:41:20;;;;;;;17.27;11.40;;;18.20;99.90;;;;;;5012647;28;20203;-64
2021/03/25 12:43:46;;;;;;;18.90;12.67;;;18.20;99.90;;;;;;5013387;28;20172;-66
2021/03/25 12:46:11;;;;;;;15.37;11.17;;;17.90;99.90;;;;;;5013098;28;20176;-66
2021/03/25 12:48:37;;;;;;;19.37;11.00;;;18.20;99.90;;;;;;5013035;28;20190;-66
2021/03/25 12:51:06;;;;;;;14.73;10.53;;;18.30;99.90;;;;;;5013081;28;20173;-66
2021/03/25 12:53:33;;;;;;;14.40;10.67;;;18.10;99.90;;;;;;5012977;28;20189;-64
2021/03/25 12:55:59;;;;;;;16.80;10.97;;;18.10;99.90;;;;;;5013148;28;20823;-64
2021/03/25 12:58:35;;;;;;;19.97;11.67;;;18.10;99.90;;;;;;5012935;28;20264;-66
2021/03/25 13:01:07;;;;;;;17.80;11.33;;;17.90;99.90;;;;;;5012705;28;20732;-66
2021/03/25 13:03:35;;;;;;;16.43;11.23;;;17.60;99.90;;;;;;5011868;28;20211;-65
2021/03/25 13:06:01;;;;;;;15.13;10.50;;;17.50;99.90;;;;;;5013040;28;20602;-65
2021/03/25 13:08:27;;;;;;;17.43;11.57;;;17.30;99.90;;;;;;5013584;28;20186;-65
2021/03/25 13:10:52;;;;;;;17.13;10.90;;;17.00;99.90;;;;;;5012419;28;20192;-67
2021/03/25 13:13:18;;;;;;;20.47;12.33;;;16.90;99.90;;;;;;5013040;28;20551;-66